sensor_id;sensor_type;location;lat;lon;timestamp;pressure;altitude;pressure_sealevel;temperature;humidity
66857;BME280;53766;50.280;19.160;2023-04-08T00:01:11;98580.53;;;16.29;47.27
66857;BME280;53766;50.280;19.160;2023-04-08T00:03:38;98577.03;;;16.29;47.35
66857;BME280;53766;50.280;19.160;2023-04-08T00:06:07;98577.88;;;16.29;47.23
66857;BME280;53766;50.280;19.160;2023-04-08T00:08:34;98578.69;;;16.30;47.36
66857;BME280;53766;50.280;19.160;2023-04-08T00:11:01;98583.19;;;16.29;47.29
66857;BME280;53766;50.280;19.160;2023-04-08T00:13:29;98584.19;;;16.28;47.38
66857;BME280;53766;50.280;19.160;2023-04-08T00:15:56;98577.41;;;16.25;47.21
66857;BME280;53766;50.280;19.160;2023-04-08T00:18:24;98583.75;;;16.24;47.30
66857;BME280;53766;50.280;19.160;2023-04-08T00:20:51;98587.22;;;16.25;47.22
66857;BME280;53766;50.280;19.160;2023-04-08T00:23:18;98589.25;;;16.23;47.20
66857;BME280;53766;50.280;19.160;2023-04-08T00:25:47;98578.63;;;16.23;47.24
66857;BME280;53766;50.280;19.160;2023-04-08T00:28:14;98592.09;;;16.21;47.20
66857;BME280;53766;50.280;19.160;2023-04-08T00:30:42;98586.78;;;16.21;47.03
66857;BME280;53766;50.280;19.160;2023-04-08T00:33:10;98591.28;;;16.21;47.27
66857;BME280;53766;50.280;19.160;2023-04-08T00:35:37;98597.41;;;16.21;47.25
66857;BME280;53766;50.280;19.160;2023-04-08T00:38:05;98588.63;;;16.21;47.18
66857;BME280;53766;50.280;19.160;2023-04-08T00:40:34;98595.78;;;16.20;47.01
66857;BME280;53766;50.280;19.160;2023-04-08T00:43:01;98596.59;;;16.21;47.27
66857;BME280;53766;50.280;19.160;2023-04-08T00:45:29;98596.59;;;16.21;47.08
66857;BME280;53766;50.280;19.160;2023-04-08T00:47:56;98600.25;;;16.20;47.20
66857;BME280;53766;50.280;19.160;2023-04-08T00:50:24;98593.28;;;16.19;47.16
66857;BME280;53766;50.280;19.160;2023-04-08T00:52:51;98596.13;;;16.17;47.07
66857;BME280;53766;50.280;19.160;2023-04-08T00:55:19;98597.97;;;16.17;46.98
66857;BME280;53766;50.280;19.160;2023-04-08T00:57:46;98612.91;;;16.18;47.11
66857;BME280;53766;50.280;19.160;2023-04-08T01:00:14;98618.22;;;16.18;47.01
66857;BME280;53766;50.280;19.160;2023-04-08T01:02:52;98608.59;;;16.17;46.88
66857;BME280;53766;50.280;19.160;2023-04-08T01:05:35;98612.91;;;16.18;46.85
66857;BME280;53766;50.280;19.160;2023-04-08T01:08:07;98605.94;;;16.17;46.87
66857;BME280;53766;50.280;19.160;2023-04-08T01:10:38;98612.28;;;16.16;46.85
66857;BME280;53766;50.280;19.160;2023-04-08T01:13:11;98612.06;;;16.17;46.88
66857;BME280;53766;50.280;19.160;2023-04-08T01:15:41;98611.25;;;16.17;46.87
66857;BME280;53766;50.280;19.160;2023-04-08T01:18:12;98614.94;;;16.16;46.88
66857;BME280;53766;50.280;19.160;2023-04-08T01:20:41;98616.09;;;16.13;46.70
66857;BME280;53766;50.280;19.160;2023-04-08T01:26:12;98621.41;;;16.13;46.80
66857;BME280;53766;50.280;19.160;2023-04-08T01:28:49;98620.59;;;16.13;46.61
66857;BME280;53766;50.280;19.160;2023-04-08T01:31:18;98625.91;;;16.13;46.68
66857;BME280;53766;50.280;19.160;2023-04-08T01:33:48;98618.59;;;16.15;46.90
66857;BME280;53766;50.280;19.160;2023-04-08T01:36:16;98619.78;;;16.12;46.86
66857;BME280;53766;50.280;19.160;2023-04-08T01:38:46;98624.28;;;16.12;46.69
66857;BME280;53766;50.280;19.160;2023-04-08T01:41:16;98628.56;;;16.13;46.71
66857;BME280;53766;50.280;19.160;2023-04-08T01:43:45;98632.25;;;16.12;46.62
66857;BME280;53766;50.280;19.160;2023-04-08T01:46:14;98628.75;;;16.11;46.60
66857;BME280;53766;50.280;19.160;2023-04-08T01:48:42;98625.91;;;16.13;46.64
66857;BME280;53766;50.280;19.160;2023-04-08T01:51:12;98625.91;;;16.13;46.75
66857;BME280;53766;50.280;19.160;2023-04-08T01:53:39;98620.97;;;16.10;46.66
66857;BME280;53766;50.280;19.160;2023-04-08T01:56:14;98622.63;;;16.11;46.61
66857;BME280;53766;50.280;19.160;2023-04-08T01:58:49;98630.59;;;16.11;46.77
66857;BME280;53766;50.280;19.160;2023-04-08T02:01:21;98626.28;;;16.10;46.57
66857;BME280;53766;50.280;19.160;2023-04-08T02:03:50;98629.94;;;16.09;46.39
66857;BME280;53766;50.280;19.160;2023-04-08T02:06:19;98627.09;;;16.10;46.46
66857;BME280;53766;50.280;19.160;2023-04-08T02:08:46;98630.78;;;16.09;46.72
66857;BME280;53766;50.280;19.160;2023-04-08T02:11:14;98633.63;;;16.08;46.73
66857;BME280;53766;50.280;19.160;2023-04-08T02:13:41;98635.25;;;16.09;46.52
66857;BME280;53766;50.280;19.160;2023-04-08T02:16:19;98626.63;;;16.07;46.46
66857;BME280;53766;50.280;19.160;2023-04-08T02:18:58;98636.09;;;16.09;46.63
66857;BME280;53766;50.280;19.160;2023-04-08T02:21:42;98639.75;;;16.08;46.46
66857;BME280;53766;50.280;19.160;2023-04-08T02:24:12;98638.13;;;16.07;46.47
66857;BME280;53766;50.280;19.160;2023-04-08T02:26:42;98636.44;;;16.06;46.56
66857;BME280;53766;50.280;19.160;2023-04-08T02:29:12;98635.47;;;16.07;46.45
66857;BME280;53766;50.280;19.160;2023-04-08T02:31:42;98642.59;;;16.07;46.30
66857;BME280;53766;50.280;19.160;2023-04-08T02:34:10;98637.47;;;16.05;46.43
66857;BME280;53766;50.280;19.160;2023-04-08T02:36:39;98646.25;;;16.06;46.50
66857;BME280;53766;50.280;19.160;2023-04-08T02:39:07;98646.25;;;16.06;46.59
66857;BME280;53766;50.280;19.160;2023-04-08T02:41:34;98647.25;;;16.04;46.22
66857;BME280;53766;50.280;19.160;2023-04-08T02:44:02;98654.22;;;16.06;46.41
66857;BME280;53766;50.280;19.160;2023-04-08T02:46:29;98650.94;;;16.03;46.38
66857;BME280;53766;50.280;19.160;2023-04-08T02:48:57;98646.59;;;16.02;46.51
66857;BME280;53766;50.280;19.160;2023-04-08T02:51:25;98651.75;;;16.04;46.35
66857;BME280;53766;50.280;19.160;2023-04-08T02:53:52;98658.91;;;16.03;46.36
66857;BME280;53766;50.280;19.160;2023-04-08T02:56:20;98661.72;;;16.02;46.34
66857;BME280;53766;50.280;19.160;2023-04-08T02:58:47;98664.22;;;16.03;46.34
66857;BME280;53766;50.280;19.160;2023-04-08T03:01:15;98665.84;;;16.04;46.25
66857;BME280;53766;50.280;19.160;2023-04-08T03:03:43;98667.88;;;16.02;46.34
66857;BME280;53766;50.280;19.160;2023-04-08T03:06:12;98670.53;;;16.02;46.28
66857;BME280;53766;50.280;19.160;2023-04-08T03:08:39;98666.22;;;16.01;46.26
66857;BME280;53766;50.280;19.160;2023-04-08T03:11:06;98660.09;;;16.01;46.08
66857;BME280;53766;50.280;19.160;2023-04-08T03:13:34;98679.50;;;16.01;46.11
66857;BME280;53766;50.280;19.160;2023-04-08T03:16:02;98670.72;;;16.01;46.23
66857;BME280;53766;50.280;19.160;2023-04-08T03:18:29;98678.50;;;16.02;46.23
66857;BME280;53766;50.280;19.160;2023-04-08T03:20:57;98674.84;;;16.03;46.11
66857;BME280;53766;50.280;19.160;2023-04-08T03:23:25;98668.50;;;16.04;46.14
66857;BME280;53766;50.280;19.160;2023-04-08T03:25:52;98675.47;;;16.06;46.16
66857;BME280;53766;50.280;19.160;2023-04-08T03:28:20;98673.66;;;16.06;46.21
66857;BME280;53766;50.280;19.160;2023-04-08T03:30:48;98674.47;;;16.07;46.13
66857;BME280;53766;50.280;19.160;2023-04-08T03:33:15;98672.00;;;16.05;46.27
66857;BME280;53766;50.280;19.160;2023-04-08T03:35:42;98680.81;;;16.06;46.18
66857;BME280;53766;50.280;19.160;2023-04-08T03:38:11;98681.78;;;16.04;46.14
66857;BME280;53766;50.280;19.160;2023-04-08T03:40:38;98683.47;;;16.06;46.22
66857;BME280;53766;50.280;19.160;2023-04-08T03:43:05;98688.78;;;16.06;45.97
66857;BME280;53766;50.280;19.160;2023-04-08T03:45:35;98696.75;;;16.06;46.24
66857;BME280;53766;50.280;19.160;2023-04-08T03:48:03;98688.78;;;16.06;46.38
66857;BME280;53766;50.280;19.160;2023-04-08T03:50:30;98687.09;;;16.04;46.20
66857;BME280;53766;50.280;19.160;2023-04-08T03:52:57;98694.09;;;16.06;46.15
66857;BME280;53766;50.280;19.160;2023-04-08T03:55:25;98694.09;;;16.06;46.21
66857;BME280;53766;50.280;19.160;2023-04-08T03:57:52;98692.41;;;16.04;46.13
66857;BME280;53766;50.280;19.160;2023-04-08T04:00:20;98697.72;;;16.04;46.25
66857;BME280;53766;50.280;19.160;2023-04-08T04:02:47;98699.41;;;16.06;46.13
66857;BME280;53766;50.280;19.160;2023-04-08T04:05:15;98700.22;;;16.06;46.12
66857;BME280;53766;50.280;19.160;2023-04-08T04:07:42;98703.03;;;16.04;46.20
66857;BME280;53766;50.280;19.160;2023-04-08T04:10:10;98707.53;;;16.04;46.10
66857;BME280;53766;50.280;19.160;2023-04-08T04:12:37;98716.31;;;16.04;46.21
66857;BME280;53766;50.280;19.160;2023-04-08T04:15:05;98718.00;;;16.06;46.13
66857;BME280;53766;50.280;19.160;2023-04-08T04:17:33;98716.31;;;16.04;46.20
66857;BME280;53766;50.280;19.160;2023-04-08T04:20:05;98718.16;;;16.04;46.16
66857;BME280;53766;50.280;19.160;2023-04-08T04:22:33;98717.19;;;16.05;46.29
66857;BME280;53766;50.280;19.160;2023-04-08T04:25:01;98716.31;;;16.04;46.18
66857;BME280;53766;50.280;19.160;2023-04-08T04:27:29;98718.16;;;16.04;45.99
66857;BME280;53766;50.280;19.160;2023-04-08T04:29:56;98724.28;;;16.04;46.09
66857;BME280;53766;50.280;19.160;2023-04-08T04:32:24;98726.78;;;16.06;46.08
66857;BME280;53766;50.280;19.160;2023-04-08T04:34:51;98727.59;;;16.07;46.04
66857;BME280;53766;50.280;19.160;2023-04-08T04:37:19;98727.59;;;16.07;46.06
66857;BME280;53766;50.280;19.160;2023-04-08T04:39:46;98730.47;;;16.05;45.95
66857;BME280;53766;50.280;19.160;2023-04-08T04:42:14;98730.47;;;16.05;46.14
66857;BME280;53766;50.280;19.160;2023-04-08T04:44:41;98732.09;;;16.06;46.14
66857;BME280;53766;50.280;19.160;2023-04-08T04:47:09;98730.91;;;16.09;46.12
66857;BME280;53766;50.280;19.160;2023-04-08T04:49:36;98736.41;;;16.22;45.70
66857;BME280;53766;50.280;19.160;2023-04-08T04:52:04;98737.25;;;16.22;45.73
66857;BME280;53766;50.280;19.160;2023-04-08T04:54:31;98737.69;;;16.26;45.61
66857;BME280;53766;50.280;19.160;2023-04-08T04:56:58;98739.38;;;16.27;45.39
66857;BME280;53766;50.280;19.160;2023-04-08T04:59:27;98741.47;;;16.32;45.43
66857;BME280;53766;50.280;19.160;2023-04-08T05:01:54;98746.06;;;16.38;45.37
66857;BME280;53766;50.280;19.160;2023-04-08T05:04:24;98752.91;;;16.32;45.30
66857;BME280;53766;50.280;19.160;2023-04-08T05:06:52;98752.19;;;16.38;45.02
66857;BME280;53766;50.280;19.160;2023-04-08T05:09:19;98754.22;;;16.36;45.27
66857;BME280;53766;50.280;19.160;2023-04-08T05:11:47;98751.94;;;16.33;45.55
66857;BME280;53766;50.280;19.160;2023-04-08T05:14:14;98754.94;;;16.30;45.74
66857;BME280;53766;50.280;19.160;2023-04-08T05:16:42;98757.97;;;16.27;45.50
66857;BME280;53766;50.280;19.160;2023-04-08T05:19:09;98762.63;;;16.25;45.75
66857;BME280;53766;50.280;19.160;2023-04-08T05:21:37;98770.59;;;16.25;45.65
66857;BME280;53766;50.280;19.160;2023-04-08T05:24:04;98764.66;;;16.23;45.71
66857;BME280;53766;50.280;19.160;2023-04-08T05:26:32;98775.28;;;16.23;45.74
66857;BME280;53766;50.280;19.160;2023-04-08T05:28:59;98770.13;;;16.21;45.81
66857;BME280;53766;50.280;19.160;2023-04-08T05:31:27;98771.97;;;16.21;45.70
66857;BME280;53766;50.280;19.160;2023-04-08T05:33:54;98770.31;;;16.20;45.48
66857;BME280;53766;50.280;19.160;2023-04-08T05:36:22;98774.81;;;16.19;45.74
66857;BME280;53766;50.280;19.160;2023-04-08T05:38:49;98777.66;;;16.18;45.66
66857;BME280;53766;50.280;19.160;2023-04-08T05:41:18;98776.66;;;16.19;45.72
66857;BME280;53766;50.280;19.160;2023-04-08T05:43:45;98777.66;;;16.18;45.58
66857;BME280;53766;50.280;19.160;2023-04-08T05:46:12;98786.63;;;16.17;45.53
66857;BME280;53766;50.280;19.160;2023-04-08T05:48:40;98781.69;;;16.14;45.63
66857;BME280;53766;50.280;19.160;2023-04-08T05:51:15;98786.63;;;16.17;45.42
66857;BME280;53766;50.280;19.160;2023-04-08T05:53:44;98793.63;;;16.18;45.46
66857;BME280;53766;50.280;19.160;2023-04-08T05:56:13;98796.28;;;16.18;45.67
66857;BME280;53766;50.280;19.160;2023-04-08T05:58:40;98796.06;;;16.19;45.37
66857;BME280;53766;50.280;19.160;2023-04-08T06:01:07;98798.56;;;16.21;45.32
66857;BME280;53766;50.280;19.160;2023-04-08T06:03:35;98803.88;;;16.21;45.61
66857;BME280;53766;50.280;19.160;2023-04-08T06:06:02;98805.50;;;16.22;45.59
66857;BME280;53766;50.280;19.160;2023-04-08T06:08:30;98804.50;;;16.23;45.63
66857;BME280;53766;50.280;19.160;2023-04-08T06:10:57;98814.13;;;16.24;45.73
66857;BME280;53766;50.280;19.160;2023-04-08T06:13:25;98812.13;;;16.26;45.93
66857;BME280;53766;50.280;19.160;2023-04-08T06:15:52;98810.31;;;16.27;45.94
66857;BME280;53766;50.280;19.160;2023-04-08T06:18:20;98826.03;;;16.28;45.87
66857;BME280;53766;50.280;19.160;2023-04-08T06:20:47;98824.03;;;16.30;45.90
66857;BME280;53766;50.280;19.160;2023-04-08T06:23:15;98823.03;;;16.31;45.93
66857;BME280;53766;50.280;19.160;2023-04-08T06:25:42;98829.34;;;16.30;45.84
66857;BME280;53766;50.280;19.160;2023-04-08T06:28:10;98831.03;;;16.31;45.76
66857;BME280;53766;50.280;19.160;2023-04-08T06:30:37;98834.66;;;16.30;45.84
66857;BME280;53766;50.280;19.160;2023-04-08T06:33:05;98840.81;;;16.31;45.71
66857;BME280;53766;50.280;19.160;2023-04-08T06:35:32;98842.47;;;16.32;45.72
66857;BME280;53766;50.280;19.160;2023-04-08T06:38:00;98846.97;;;16.31;45.56
66857;BME280;53766;50.280;19.160;2023-04-08T06:40:27;98848.97;;;16.29;45.45
66857;BME280;53766;50.280;19.160;2023-04-08T06:42:55;98849.78;;;16.30;45.55
66857;BME280;53766;50.280;19.160;2023-04-08T06:45:22;98854.94;;;16.31;45.30
66857;BME280;53766;50.280;19.160;2023-04-08T06:47:50;98847.97;;;16.30;45.41
66857;BME280;53766;50.280;19.160;2023-04-08T06:50:17;98862.91;;;16.31;45.24
66857;BME280;53766;50.280;19.160;2023-04-08T06:52:44;98857.59;;;16.31;45.29
66857;BME280;53766;50.280;19.160;2023-04-08T06:55:12;98850.78;;;16.29;45.36
66857;BME280;53766;50.280;19.160;2023-04-08T06:57:40;98856.94;;;16.29;45.24
66857;BME280;53766;50.280;19.160;2023-04-08T07:00:08;98855.75;;;16.32;45.30
66857;BME280;53766;50.280;19.160;2023-04-08T07:02:36;98853.91;;;16.32;45.26
66857;BME280;53766;50.280;19.160;2023-04-08T07:05:04;98859.06;;;16.34;45.24
66857;BME280;53766;50.280;19.160;2023-04-08T07:07:32;98858.91;;;16.35;45.37
66857;BME280;53766;50.280;19.160;2023-04-08T07:09:59;98865.84;;;16.36;45.30
66857;BME280;53766;50.280;19.160;2023-04-08T07:12:27;98863.84;;;16.38;45.49
66857;BME280;53766;50.280;19.160;2023-04-08T07:14:54;98864.66;;;16.39;45.46
66857;BME280;53766;50.280;19.160;2023-04-08T07:17:22;98867.97;;;16.41;45.55
66857;BME280;53766;50.280;19.160;2023-04-08T07:19:49;98873.38;;;16.48;45.60
66857;BME280;53766;50.280;19.160;2023-04-08T07:22:17;98864.84;;;16.52;46.14
66857;BME280;53766;50.280;19.160;2023-04-08T07:24:44;98870.81;;;16.54;45.94
66857;BME280;53766;50.280;19.160;2023-04-08T07:27:16;98875.59;;;16.59;46.28
66857;BME280;53766;50.280;19.160;2023-04-08T07:29:43;98880.25;;;16.57;45.55
66857;BME280;53766;50.280;19.160;2023-04-08T07:32:10;98879.28;;;16.58;45.35
66857;BME280;53766;50.280;19.160;2023-04-08T07:34:38;98879.28;;;16.58;45.29
66857;BME280;53766;50.280;19.160;2023-04-08T07:37:06;98882.09;;;16.56;45.45
66857;BME280;53766;50.280;19.160;2023-04-08T07:39:34;98885.25;;;16.60;45.28
66857;BME280;53766;50.280;19.160;2023-04-08T07:42:01;98886.88;;;16.61;45.46
66857;BME280;53766;50.280;19.160;2023-04-08T07:44:29;98891.19;;;16.62;45.41
66857;BME280;53766;50.280;19.160;2023-04-08T07:46:57;98880.56;;;16.62;45.58
66857;BME280;53766;50.280;19.160;2023-04-08T07:49:24;98881.38;;;16.62;45.55
66857;BME280;53766;50.280;19.160;2023-04-08T07:51:52;98877.91;;;16.62;45.42
66857;BME280;53766;50.280;19.160;2023-04-08T07:54:19;98872.38;;;16.63;45.52
66857;BME280;53766;50.280;19.160;2023-04-08T07:56:47;98871.41;;;16.64;45.37
66857;BME280;53766;50.280;19.160;2023-04-08T07:59:17;98884.69;;;16.64;45.55
66857;BME280;53766;50.280;19.160;2023-04-08T08:01:44;98876.53;;;16.66;45.42
66857;BME280;53766;50.280;19.160;2023-04-08T08:04:13;98879.00;;;16.67;45.53
66857;BME280;53766;50.280;19.160;2023-04-08T08:06:40;98886.81;;;16.69;45.47
66857;BME280;53766;50.280;19.160;2023-04-08T08:09:08;98882.78;;;16.73;45.21
66857;BME280;53766;50.280;19.160;2023-04-08T08:11:35;98892.41;;;16.74;45.07
66857;BME280;53766;50.280;19.160;2023-04-08T08:14:02;98897.72;;;16.74;45.13
66857;BME280;53766;50.280;19.160;2023-04-08T08:16:31;98889.38;;;16.77;45.11
66857;BME280;53766;50.280;19.160;2023-04-08T08:18:59;98895.53;;;16.78;45.10
66857;BME280;53766;50.280;19.160;2023-04-08T08:21:27;98893.88;;;16.77;45.12
66857;BME280;53766;50.280;19.160;2023-04-08T08:23:55;98891.88;;;16.79;45.05
66857;BME280;53766;50.280;19.160;2023-04-08T08:26:23;98894.72;;;16.77;45.10
66857;BME280;53766;50.280;19.160;2023-04-08T08:28:50;98891.69;;;16.80;45.10
66857;BME280;53766;50.280;19.160;2023-04-08T08:31:18;98892.34;;;16.82;45.10
66857;BME280;53766;50.280;19.160;2023-04-08T08:33:45;98890.34;;;16.84;45.01
66857;BME280;53766;50.280;19.160;2023-04-08T08:36:13;98892.00;;;16.85;45.00
66857;BME280;53766;50.280;19.160;2023-04-08T08:38:40;98896.28;;;16.86;44.92
66857;BME280;53766;50.280;19.160;2023-04-08T08:41:08;98900.63;;;16.88;44.97
66857;BME280;53766;50.280;19.160;2023-04-08T08:43:35;98909.22;;;16.90;44.89
66857;BME280;53766;50.280;19.160;2023-04-08T08:46:09;98912.53;;;16.92;44.78
66857;BME280;53766;50.280;19.160;2023-04-08T08:48:36;98911.38;;;16.94;44.83
66857;BME280;53766;50.280;19.160;2023-04-08T08:51:08;98918.88;;;16.91;44.86
66857;BME280;53766;50.280;19.160;2023-04-08T08:53:36;98924.84;;;16.93;44.94
66857;BME280;53766;50.280;19.160;2023-04-08T08:56:04;98924.84;;;16.93;44.77
66857;BME280;53766;50.280;19.160;2023-04-08T08:58:37;98923.16;;;16.92;44.82
66857;BME280;53766;50.280;19.160;2023-04-08T09:01:31;98922.81;;;16.95;44.84
66857;BME280;53766;50.280;19.160;2023-04-08T09:04:25;98931.44;;;16.97;44.92
66857;BME280;53766;50.280;19.160;2023-04-08T09:07:10;98926.13;;;16.97;45.09
66857;BME280;53766;50.280;19.160;2023-04-08T09:09:50;98936.78;;;16.97;45.33
66857;BME280;53766;50.280;19.160;2023-04-08T09:12:17;98933.09;;;16.98;45.38
66857;BME280;53766;50.280;19.160;2023-04-08T09:14:45;98940.06;;;16.99;45.43
66857;BME280;53766;50.280;19.160;2023-04-08T09:17:13;98929.44;;;16.99;45.24
66857;BME280;53766;50.280;19.160;2023-04-08T09:20:06;98925.75;;;17.00;45.65
66857;BME280;53766;50.280;19.160;2023-04-08T09:22:59;98937.22;;;17.00;45.48
66857;BME280;53766;50.280;19.160;2023-04-08T09:25:31;98934.38;;;17.02;45.55
66857;BME280;53766;50.280;19.160;2023-04-08T09:27:59;98944.69;;;17.05;45.55
66857;BME280;53766;50.280;19.160;2023-04-08T09:30:31;98944.03;;;17.03;45.58
66857;BME280;53766;50.280;19.160;2023-04-08T09:32:58;98943.00;;;17.04;45.59
66857;BME280;53766;50.280;19.160;2023-04-08T09:35:27;98941.38;;;17.03;45.59
66857;BME280;53766;50.280;19.160;2023-04-08T09:37:55;98952.84;;;17.03;45.64
66857;BME280;53766;50.280;19.160;2023-04-08T09:40:23;98950.16;;;17.03;45.64
66857;BME280;53766;50.280;19.160;2023-04-08T09:42:51;98950.34;;;17.02;45.76
66857;BME280;53766;50.280;19.160;2023-04-08T09:45:20;98952.00;;;17.03;45.55
66857;BME280;53766;50.280;19.160;2023-04-08T09:50:26;98955.66;;;17.02;45.54
66857;BME280;53766;50.280;19.160;2023-04-08T09:53:00;98947.69;;;17.02;45.93
66857;BME280;53766;50.280;19.160;2023-04-08T09:55:30;98950.34;;;17.02;45.84
66857;BME280;53766;50.280;19.160;2023-04-08T09:58:07;98947.50;;;17.03;46.51
66857;BME280;53766;50.280;19.160;2023-04-08T10:00:39;98954.47;;;17.04;46.36
66857;BME280;53766;50.280;19.160;2023-04-08T10:05:47;98956.97;;;17.06;47.12
66857;BME280;53766;50.280;19.160;2023-04-08T10:08:16;98962.28;;;17.06;47.44
66857;BME280;53766;50.280;19.160;2023-04-08T10:10:45;98961.25;;;17.07;47.61
66857;BME280;53766;50.280;19.160;2023-04-08T10:13:14;98963.91;;;17.07;47.56
66857;BME280;53766;50.280;19.160;2023-04-08T10:15:42;98954.94;;;17.08;47.67
66857;BME280;53766;50.280;19.160;2023-04-08T10:20:40;98962.94;;;17.08;47.86
66857;BME280;53766;50.280;19.160;2023-04-08T10:23:10;98964.56;;;17.09;47.86
66857;BME280;53766;50.280;19.160;2023-04-08T10:25:40;98961.56;;;17.12;48.05
66857;BME280;53766;50.280;19.160;2023-04-08T10:30:49;98969.81;;;17.17;48.12
66857;BME280;53766;50.280;19.160;2023-04-08T10:38:22;98964.13;;;17.20;48.15
66857;BME280;53766;50.280;19.160;2023-04-08T10:40:50;98953.28;;;17.22;48.34
66857;BME280;53766;50.280;19.160;2023-04-08T10:43:18;98970.72;;;17.24;48.48
66857;BME280;53766;50.280;19.160;2023-04-08T10:45:46;98961.75;;;17.25;48.43
66857;BME280;53766;50.280;19.160;2023-04-08T10:48:22;98961.91;;;17.24;48.35
66857;BME280;53766;50.280;19.160;2023-04-08T10:50:58;98970.72;;;17.24;48.49
66857;BME280;53766;50.280;19.160;2023-04-08T10:53:27;98961.09;;;17.23;48.36
66857;BME280;53766;50.280;19.160;2023-04-08T10:56:12;98963.59;;;17.25;48.50
66857;BME280;53766;50.280;19.160;2023-04-08T10:58:52;98964.56;;;17.24;48.61
66857;BME280;53766;50.280;19.160;2023-04-08T11:01:22;98966.25;;;17.25;48.46
66857;BME280;53766;50.280;19.160;2023-04-08T11:03:50;98954.75;;;17.24;48.44
66857;BME280;53766;50.280;19.160;2023-04-08T11:06:18;98958.25;;;17.25;48.43
66857;BME280;53766;50.280;19.160;2023-04-08T11:08:46;98960.91;;;17.25;48.23
66857;BME280;53766;50.280;19.160;2023-04-08T11:11:13;98961.75;;;17.25;48.55
66857;BME280;53766;50.280;19.160;2023-04-08T11:13:43;98965.41;;;17.24;48.69
66857;BME280;53766;50.280;19.160;2023-04-08T11:16:20;98963.75;;;17.23;48.65
66857;BME280;53766;50.280;19.160;2023-04-08T11:18:50;98967.25;;;17.24;48.53
66857;BME280;53766;50.280;19.160;2023-04-08T11:21:17;98962.94;;;17.23;48.60
66857;BME280;53766;50.280;19.160;2023-04-08T11:23:48;98966.59;;;17.22;48.54
66857;BME280;53766;50.280;19.160;2023-04-08T11:26:16;98954.13;;;17.22;48.60
66857;BME280;53766;50.280;19.160;2023-04-08T11:28:45;98969.09;;;17.23;48.55
66857;BME280;53766;50.280;19.160;2023-04-08T11:31:15;98966.59;;;17.22;48.50
66857;BME280;53766;50.280;19.160;2023-04-08T11:33:45;98961.28;;;17.22;48.37
66857;BME280;53766;50.280;19.160;2023-04-08T11:36:14;98962.13;;;17.22;48.28
66857;BME280;53766;50.280;19.160;2023-04-08T11:38:44;98962.13;;;17.22;48.40
66857;BME280;53766;50.280;19.160;2023-04-08T11:41:14;98955.13;;;17.21;48.33
66857;BME280;53766;50.280;19.160;2023-04-08T11:43:53;98964.78;;;17.22;48.31
66857;BME280;53766;50.280;19.160;2023-04-08T11:46:21;98965.78;;;17.21;48.42
66857;BME280;53766;50.280;19.160;2023-04-08T11:49:00;98960.44;;;17.21;48.33
66857;BME280;53766;50.280;19.160;2023-04-08T11:51:27;98956.78;;;17.22;48.74
66857;BME280;53766;50.280;19.160;2023-04-08T11:53:55;98957.78;;;17.21;48.76
66857;BME280;53766;50.280;19.160;2023-04-08T11:56:24;98958.81;;;17.20;48.85
66857;BME280;53766;50.280;19.160;2023-04-08T11:58:52;98959.81;;;17.19;48.98
66857;BME280;53766;50.280;19.160;2023-04-08T12:01:19;98964.13;;;17.20;49.26
66857;BME280;53766;50.280;19.160;2023-04-08T12:03:57;98961.09;;;17.23;49.47
66857;BME280;53766;50.280;19.160;2023-04-08T12:06:26;98965.78;;;17.21;49.39
66857;BME280;53766;50.280;19.160;2023-04-08T12:08:55;98961.19;;;17.15;49.33
66857;BME280;53766;50.280;19.160;2023-04-08T12:11:23;98967.22;;;17.09;49.44
66857;BME280;53766;50.280;19.160;2023-04-08T12:13:50;98964.28;;;17.04;49.43
66857;BME280;53766;50.280;19.160;2023-04-08T12:16:19;98961.16;;;17.00;49.44
66857;BME280;53766;50.280;19.160;2023-04-08T12:18:47;98958.88;;;16.97;49.36
66857;BME280;53766;50.280;19.160;2023-04-08T12:21:14;98962.72;;;16.95;49.44
66857;BME280;53766;50.280;19.160;2023-04-08T12:23:42;98960.41;;;16.92;49.31
66857;BME280;53766;50.280;19.160;2023-04-08T12:26:09;98962.25;;;16.91;49.50
66857;BME280;53766;50.280;19.160;2023-04-08T12:28:38;98966.13;;;16.89;49.85
66857;BME280;53766;50.280;19.160;2023-04-08T12:31:06;98968.13;;;16.86;49.83
66857;BME280;53766;50.280;19.160;2023-04-08T12:33:33;98964.81;;;16.84;49.98
66857;BME280;53766;50.280;19.160;2023-04-08T12:36:01;98968.94;;;16.87;50.05
66857;BME280;53766;50.280;19.160;2023-04-08T12:38:29;98971.81;;;16.85;50.06
66857;BME280;53766;50.280;19.160;2023-04-08T12:40:56;98969.31;;;16.84;49.99
66857;BME280;53766;50.280;19.160;2023-04-08T12:43:24;98970.50;;;16.81;49.93
66857;BME280;53766;50.280;19.160;2023-04-08T12:45:51;98961.84;;;16.79;50.01
66857;BME280;53766;50.280;19.160;2023-04-08T12:48:19;98974.50;;;16.77;50.11
66857;BME280;53766;50.280;19.160;2023-04-08T12:50:46;98974.84;;;16.74;50.25
66857;BME280;53766;50.280;19.160;2023-04-08T12:53:14;98977.72;;;16.73;50.17
66857;BME280;53766;50.280;19.160;2023-04-08T12:55:41;98970.91;;;16.70;50.15
66857;BME280;53766;50.280;19.160;2023-04-08T12:58:11;98966.59;;;16.69;50.26
66857;BME280;53766;50.280;19.160;2023-04-08T13:00:38;98968.59;;;16.67;50.37
66857;BME280;53766;50.280;19.160;2023-04-08T13:03:06;98977.59;;;16.66;50.29
66857;BME280;53766;50.280;19.160;2023-04-08T13:05:34;98974.28;;;16.64;50.36
66857;BME280;53766;50.280;19.160;2023-04-08T13:08:10;98977.94;;;16.63;50.19
66857;BME280;53766;50.280;19.160;2023-04-08T13:10:41;98973.81;;;16.60;50.30
66857;BME280;53766;50.280;19.160;2023-04-08T13:13:08;98977.50;;;16.59;50.39
66857;BME280;53766;50.280;19.160;2023-04-08T13:15:36;98980.31;;;16.58;50.61
66857;BME280;53766;50.280;19.160;2023-04-08T13:18:04;98983.97;;;16.57;50.58